Hinmans Corners, New York
Current Conditions -  °F | °C
As of 7:53 AM on Monday 22 Dec 2014 (Local Time) from KBGM Reporting Station
Overcast Overcast  
Wind Chill: 19°   Ceiling: 1200
Heat Index: 28°   Visibility: 10mi
Dew Point: 24°   Wind: 9mph
Humidity: 85%   Direction: 160°SSE
Pressure: 30.23"   Gusts: NA
Location:  42.1759°N, 75.9402°W
Report Text: KBGM 221253Z 16008KT 10SM OVC012 M02/M04 A3023 RMK AO2 SLP256 T10221044
Loading
Personal Weather Stations






























Interactive Weather Map New forecast layout! Learn more

10-Day Weather Forecast

Advertisements
Track Severe Weather on mobile